Terminal Aerodrome Forecast
Issued by NWS

Home | Current Version | Previous Version | Text Only | Print | Product List | Glossary On
Versions: 1 2 3 4 5 6 7 8 9 10 11 12 13 14 15 16
000
FTUS43 KMQT 291100
TAFSAW
TAF
KSAW 291138Z 2912/3012 17007KT 6SM -DZ BR OVC035
     FM291300 17007KT 6SM -SHRA OVC025
     FM291400 17008KT 6SM -RA BKN015
     FM291600 16009KT 5SM -RA BR OVC006
     FM292200 18007KT P6SM -SHRA BKN020
     FM300500 20005KT 4SM RA BKN010
      AMD LTD TO CLD VIS AND WIND 3002/3010=

USA.gov is the U.S. government's official web portal to all federal, state and local government web resources and services.